ETOU/WIE METAR and TAF weather

Enter ICAO airport designator
Station Type Date Time Source
ETOU METAR 2022/12/05 13:35 UTC NOAA

ETOU 051335Z AUTO 00000KT 9999 OVC007 04/04 A3008 RMK AO2 SLP195 $


Station Type Date Time Source
ETOU Decoded METAR 2022/12/05 13:35 UTC NOAA

Wiesbaden, Germany (ETOU) 50-03N 008-20E
Dec 05, 2022 - 08:35 AM EST / 2022.12.05 1335 UTC
Wind: Calm:0
Visibility: greater than 7 mile(s):0
Sky conditions: overcast
Temperature: 39 F (4 C)
Dew Point: 39 F (4 C)
Relative Humidity: 100%
Pressure (altimeter): 30.08 in. Hg (1018 hPa)
ob: ETOU 051335Z AUTO 00000KT 9999 OVC007 04/04 A3008 RMK AO2 SLP195
cycle: 13

Station Type Date Time Source
ETOU TAF 2022/12/05 13:34 UTC NOAA

TAF
AMD ETOU 051328Z 0513/0619 22006KT 9000 BR OVC007 QNH3006INS
TEMPO 0514/0516 8000 -DZ
BECMG 0604/0605 25006KT 9999 NSW SCT007 BKN010 OVC020 QNH3005INS
TEMPO 0605/0607 8000 -RA
BECMG 0615/0616 30009KT 9999 SCT010 BKN015 QNH3004INS TX04/0514Z TN02/0603Z

Example: see airport list